sensor_id;sensor_type;location;lat;lon;timestamp;P1;durP1;ratioP1;P2;durP2;ratioP2
5133;SDS011;2585;48.696;10.066;2023-07-02T00:00:07;2.63;;;2.10;;
5133;SDS011;2585;48.696;10.066;2023-07-02T00:02:37;2.60;;;2.00;;
5133;SDS011;2585;48.696;10.066;2023-07-02T00:05:05;2.50;;;2.30;;
5133;SDS011;2585;48.696;10.066;2023-07-02T00:07:32;3.20;;;2.77;;
5133;SDS011;2585;48.696;10.066;2023-07-02T00:10:01;7.67;;;3.10;;
5133;SDS011;2585;48.696;10.066;2023-07-02T00:12:28;6.90;;;3.27;;
5133;SDS011;2585;48.696;10.066;2023-07-02T00:14:55;4.90;;;3.20;;
5133;SDS011;2585;48.696;10.066;2023-07-02T00:17:21;6.07;;;3.30;;
5133;SDS011;2585;48.696;10.066;2023-07-02T00:19:48;6.00;;;3.90;;
5133;SDS011;2585;48.696;10.066;2023-07-02T00:22:18;6.67;;;3.63;;
5133;SDS011;2585;48.696;10.066;2023-07-02T00:24:45;4.30;;;3.90;;
5133;SDS011;2585;48.696;10.066;2023-07-02T00:27:12;5.33;;;3.57;;
5133;SDS011;2585;48.696;10.066;2023-07-02T00:29:39;5.10;;;3.43;;
5133;SDS011;2585;48.696;10.066;2023-07-02T00:32:06;4.43;;;3.20;;
5133;SDS011;2585;48.696;10.066;2023-07-02T00:34:33;6.33;;;3.67;;
5133;SDS011;2585;48.696;10.066;2023-07-02T00:37:00;5.80;;;3.40;;
5133;SDS011;2585;48.696;10.066;2023-07-02T00:39:26;4.03;;;3.50;;
5133;SDS011;2585;48.696;10.066;2023-07-02T00:41:53;4.77;;;3.60;;
5133;SDS011;2585;48.696;10.066;2023-07-02T00:44:25;5.57;;;3.40;;
5133;SDS011;2585;48.696;10.066;2023-07-02T00:46:52;4.03;;;3.50;;
5133;SDS011;2585;48.696;10.066;2023-07-02T00:49:19;6.07;;;3.67;;
5133;SDS011;2585;48.696;10.066;2023-07-02T00:51:46;7.07;;;4.43;;
5133;SDS011;2585;48.696;10.066;2023-07-02T00:54:13;5.30;;;3.70;;
5133;SDS011;2585;48.696;10.066;2023-07-02T00:56:40;4.07;;;3.50;;
5133;SDS011;2585;48.696;10.066;2023-07-02T00:59:07;4.60;;;3.70;;
5133;SDS011;2585;48.696;10.066;2023-07-02T01:01:34;3.53;;;3.20;;
5133;SDS011;2585;48.696;10.066;2023-07-02T01:04:05;5.57;;;4.20;;
5133;SDS011;2585;48.696;10.066;2023-07-02T01:06:35;4.10;;;3.80;;
5133;SDS011;2585;48.696;10.066;2023-07-02T01:09:03;5.00;;;4.00;;
5133;SDS011;2585;48.696;10.066;2023-07-02T01:11:32;3.50;;;3.13;;
5133;SDS011;2585;48.696;10.066;2023-07-02T01:14:02;4.50;;;3.43;;
5133;SDS011;2585;48.696;10.066;2023-07-02T01:16:41;5.43;;;3.90;;
5133;SDS011;2585;48.696;10.066;2023-07-02T01:22:18;4.93;;;3.27;;
5133;SDS011;2585;48.696;10.066;2023-07-02T01:24:50;6.00;;;3.70;;
5133;SDS011;2585;48.696;10.066;2023-07-02T01:27:17;4.57;;;3.40;;
5133;SDS011;2585;48.696;10.066;2023-07-02T01:29:45;7.20;;;3.90;;
5133;SDS011;2585;48.696;10.066;2023-07-02T01:32:13;5.57;;;3.40;;
5133;SDS011;2585;48.696;10.066;2023-07-02T01:34:40;5.93;;;3.90;;
5133;SDS011;2585;48.696;10.066;2023-07-02T01:37:07;5.33;;;4.13;;
5133;SDS011;2585;48.696;10.066;2023-07-02T01:39:35;4.10;;;3.60;;
5133;SDS011;2585;48.696;10.066;2023-07-02T01:42:12;4.53;;;3.90;;
5133;SDS011;2585;48.696;10.066;2023-07-02T01:44:45;6.63;;;3.70;;
5133;SDS011;2585;48.696;10.066;2023-07-02T01:47:13;4.30;;;3.90;;
5133;SDS011;2585;48.696;10.066;2023-07-02T01:49:42;7.40;;;3.53;;
5133;SDS011;2585;48.696;10.066;2023-07-02T01:52:09;4.33;;;3.93;;
5133;SDS011;2585;48.696;10.066;2023-07-02T01:54:36;5.03;;;2.90;;
5133;SDS011;2585;48.696;10.066;2023-07-02T01:57:03;5.27;;;3.30;;
5133;SDS011;2585;48.696;10.066;2023-07-02T01:59:30;8.03;;;3.77;;
5133;SDS011;2585;48.696;10.066;2023-07-02T02:01:57;4.23;;;3.50;;
5133;SDS011;2585;48.696;10.066;2023-07-02T02:04:24;5.40;;;3.67;;
5133;SDS011;2585;48.696;10.066;2023-07-02T02:06:51;5.10;;;3.90;;
5133;SDS011;2585;48.696;10.066;2023-07-02T02:09:18;6.87;;;3.63;;
5133;SDS011;2585;48.696;10.066;2023-07-02T02:11:47;4.03;;;3.63;;
5133;SDS011;2585;48.696;10.066;2023-07-02T02:14:15;8.57;;;3.63;;
5133;SDS011;2585;48.696;10.066;2023-07-02T02:16:43;8.13;;;3.97;;
5133;SDS011;2585;48.696;10.066;2023-07-02T02:19:13;4.97;;;3.30;;
5133;SDS011;2585;48.696;10.066;2023-07-02T02:21:41;9.30;;;3.50;;
5133;SDS011;2585;48.696;10.066;2023-07-02T02:24:08;6.07;;;3.57;;
5133;SDS011;2585;48.696;10.066;2023-07-02T02:26:36;6.93;;;3.67;;
5133;SDS011;2585;48.696;10.066;2023-07-02T02:29:03;4.90;;;3.50;;
5133;SDS011;2585;48.696;10.066;2023-07-02T02:31:30;5.80;;;3.67;;
5133;SDS011;2585;48.696;10.066;2023-07-02T02:33:58;6.17;;;3.83;;
5133;SDS011;2585;48.696;10.066;2023-07-02T02:36:24;5.83;;;3.73;;
5133;SDS011;2585;48.696;10.066;2023-07-02T02:38:51;5.37;;;3.83;;
5133;SDS011;2585;48.696;10.066;2023-07-02T02:41:18;5.97;;;3.23;;
5133;SDS011;2585;48.696;10.066;2023-07-02T02:43:45;3.83;;;3.40;;
5133;SDS011;2585;48.696;10.066;2023-07-02T02:46:12;5.00;;;3.57;;
5133;SDS011;2585;48.696;10.066;2023-07-02T02:48:39;6.50;;;3.60;;
5133;SDS011;2585;48.696;10.066;2023-07-02T02:51:06;5.10;;;3.70;;
5133;SDS011;2585;48.696;10.066;2023-07-02T02:53:32;5.87;;;3.43;;
5133;SDS011;2585;48.696;10.066;2023-07-02T02:55:59;6.63;;;3.90;;
5133;SDS011;2585;48.696;10.066;2023-07-02T02:58:26;4.87;;;3.70;;
5133;SDS011;2585;48.696;10.066;2023-07-02T03:00:54;7.37;;;3.17;;
5133;SDS011;2585;48.696;10.066;2023-07-02T03:03:21;6.77;;;3.60;;
5133;SDS011;2585;48.696;10.066;2023-07-02T03:05:50;5.90;;;3.67;;
5133;SDS011;2585;48.696;10.066;2023-07-02T03:08:17;5.87;;;3.90;;
5133;SDS011;2585;48.696;10.066;2023-07-02T03:10:44;4.70;;;3.30;;
5133;SDS011;2585;48.696;10.066;2023-07-02T03:13:11;9.93;;;3.67;;
5133;SDS011;2585;48.696;10.066;2023-07-02T03:15:38;5.83;;;3.57;;
5133;SDS011;2585;48.696;10.066;2023-07-02T03:18:05;5.73;;;3.03;;
5133;SDS011;2585;48.696;10.066;2023-07-02T03:20:32;2.83;;;2.63;;
5133;SDS011;2585;48.696;10.066;2023-07-02T03:22:59;3.53;;;3.20;;
5133;SDS011;2585;48.696;10.066;2023-07-02T03:25:26;4.20;;;3.27;;
5133;SDS011;2585;48.696;10.066;2023-07-02T03:27:53;3.43;;;2.90;;
5133;SDS011;2585;48.696;10.066;2023-07-02T03:30:19;4.27;;;3.40;;
5133;SDS011;2585;48.696;10.066;2023-07-02T03:32:46;3.53;;;2.83;;
5133;SDS011;2585;48.696;10.066;2023-07-02T03:35:13;4.20;;;3.80;;
5133;SDS011;2585;48.696;10.066;2023-07-02T03:37:40;6.23;;;4.00;;
5133;SDS011;2585;48.696;10.066;2023-07-02T03:40:10;5.03;;;3.40;;
5133;SDS011;2585;48.696;10.066;2023-07-02T03:42:37;4.10;;;3.43;;
5133;SDS011;2585;48.696;10.066;2023-07-02T03:45:04;7.40;;;3.37;;
5133;SDS011;2585;48.696;10.066;2023-07-02T03:47:31;5.83;;;3.30;;
5133;SDS011;2585;48.696;10.066;2023-07-02T03:49:58;4.30;;;3.40;;
5133;SDS011;2585;48.696;10.066;2023-07-02T03:52:24;6.20;;;4.07;;
5133;SDS011;2585;48.696;10.066;2023-07-02T03:54:52;5.30;;;3.53;;
5133;SDS011;2585;48.696;10.066;2023-07-02T03:57:18;4.90;;;3.53;;
5133;SDS011;2585;48.696;10.066;2023-07-02T03:59:45;3.87;;;3.50;;
5133;SDS011;2585;48.696;10.066;2023-07-02T04:02:12;4.40;;;3.47;;
5133;SDS011;2585;48.696;10.066;2023-07-02T04:04:39;8.00;;;3.90;;
5133;SDS011;2585;48.696;10.066;2023-07-02T04:07:06;6.07;;;4.27;;
5133;SDS011;2585;48.696;10.066;2023-07-02T04:09:33;4.93;;;4.30;;
5133;SDS011;2585;48.696;10.066;2023-07-02T04:12:00;11.93;;;4.20;;
5133;SDS011;2585;48.696;10.066;2023-07-02T04:14:27;4.57;;;3.40;;
5133;SDS011;2585;48.696;10.066;2023-07-02T04:16:54;7.30;;;4.00;;
5133;SDS011;2585;48.696;10.066;2023-07-02T04:19:21;5.90;;;3.43;;
5133;SDS011;2585;48.696;10.066;2023-07-02T04:21:48;5.33;;;4.33;;
5133;SDS011;2585;48.696;10.066;2023-07-02T04:24:15;5.60;;;3.97;;
5133;SDS011;2585;48.696;10.066;2023-07-02T04:26:42;5.57;;;3.60;;
5133;SDS011;2585;48.696;10.066;2023-07-02T04:29:29;6.60;;;3.70;;
5133;SDS011;2585;48.696;10.066;2023-07-02T04:31:56;7.60;;;3.97;;
5133;SDS011;2585;48.696;10.066;2023-07-02T04:34:23;6.00;;;3.60;;
5133;SDS011;2585;48.696;10.066;2023-07-02T04:36:50;6.20;;;3.80;;
5133;SDS011;2585;48.696;10.066;2023-07-02T04:39:19;6.03;;;4.07;;
5133;SDS011;2585;48.696;10.066;2023-07-02T04:41:46;4.50;;;4.10;;
5133;SDS011;2585;48.696;10.066;2023-07-02T04:44:15;4.53;;;3.90;;
5133;SDS011;2585;48.696;10.066;2023-07-02T04:46:42;3.83;;;3.37;;
5133;SDS011;2585;48.696;10.066;2023-07-02T04:49:08;8.40;;;4.07;;
5133;SDS011;2585;48.696;10.066;2023-07-02T04:51:35;5.30;;;3.97;;
5133;SDS011;2585;48.696;10.066;2023-07-02T04:54:02;5.53;;;4.00;;
5133;SDS011;2585;48.696;10.066;2023-07-02T04:56:29;5.63;;;4.13;;
5133;SDS011;2585;48.696;10.066;2023-07-02T04:58:56;6.77;;;4.00;;
5133;SDS011;2585;48.696;10.066;2023-07-02T05:01:22;5.77;;;4.20;;
5133;SDS011;2585;48.696;10.066;2023-07-02T05:03:49;6.60;;;4.70;;
5133;SDS011;2585;48.696;10.066;2023-07-02T05:06:16;4.27;;;3.87;;
5133;SDS011;2585;48.696;10.066;2023-07-02T05:08:43;6.70;;;4.10;;
5133;SDS011;2585;48.696;10.066;2023-07-02T05:11:10;2.83;;;2.63;;
5133;SDS011;2585;48.696;10.066;2023-07-02T05:13:36;4.57;;;2.37;;
5133;SDS011;2585;48.696;10.066;2023-07-02T05:16:03;2.93;;;2.03;;
5133;SDS011;2585;48.696;10.066;2023-07-02T05:18:30;2.30;;;2.10;;
5133;SDS011;2585;48.696;10.066;2023-07-02T05:20:57;2.77;;;1.97;;
5133;SDS011;2585;48.696;10.066;2023-07-02T05:23:24;3.60;;;1.90;;
5133;SDS011;2585;48.696;10.066;2023-07-02T05:25:51;2.73;;;2.40;;
5133;SDS011;2585;48.696;10.066;2023-07-02T05:28:17;2.87;;;2.40;;
5133;SDS011;2585;48.696;10.066;2023-07-02T05:30:44;2.13;;;1.90;;
5133;SDS011;2585;48.696;10.066;2023-07-02T05:33:11;2.93;;;2.20;;
5133;SDS011;2585;48.696;10.066;2023-07-02T05:35:39;3.20;;;1.90;;
5133;SDS011;2585;48.696;10.066;2023-07-02T05:38:05;2.37;;;2.17;;
5133;SDS011;2585;48.696;10.066;2023-07-02T05:40:32;2.77;;;2.30;;
5133;SDS011;2585;48.696;10.066;2023-07-02T05:42:59;2.53;;;2.20;;
5133;SDS011;2585;48.696;10.066;2023-07-02T05:45:26;2.80;;;1.93;;
5133;SDS011;2585;48.696;10.066;2023-07-02T05:47:53;4.17;;;2.37;;
5133;SDS011;2585;48.696;10.066;2023-07-02T05:50:20;3.33;;;2.37;;
5133;SDS011;2585;48.696;10.066;2023-07-02T05:52:47;3.13;;;2.83;;
5133;SDS011;2585;48.696;10.066;2023-07-02T05:55:14;18.33;;;6.30;;
5133;SDS011;2585;48.696;10.066;2023-07-02T05:57:41;12.43;;;7.17;;
5133;SDS011;2585;48.696;10.066;2023-07-02T06:00:08;9.70;;;6.90;;
5133;SDS011;2585;48.696;10.066;2023-07-02T06:02:35;16.10;;;7.80;;
5133;SDS011;2585;48.696;10.066;2023-07-02T06:05:02;13.80;;;8.20;;
5133;SDS011;2585;48.696;10.066;2023-07-02T06:07:30;13.27;;;8.33;;
5133;SDS011;2585;48.696;10.066;2023-07-02T06:09:56;14.07;;;7.37;;
5133;SDS011;2585;48.696;10.066;2023-07-02T06:12:23;17.53;;;9.13;;
5133;SDS011;2585;48.696;10.066;2023-07-02T06:14:50;18.90;;;9.03;;
5133;SDS011;2585;48.696;10.066;2023-07-02T06:17:17;12.63;;;8.37;;
5133;SDS011;2585;48.696;10.066;2023-07-02T06:19:44;13.77;;;8.30;;
5133;SDS011;2585;48.696;10.066;2023-07-02T06:22:11;15.67;;;7.50;;
5133;SDS011;2585;48.696;10.066;2023-07-02T06:24:38;14.27;;;8.50;;
5133;SDS011;2585;48.696;10.066;2023-07-02T06:27:04;13.07;;;8.30;;
5133;SDS011;2585;48.696;10.066;2023-07-02T06:29:31;10.37;;;7.30;;
5133;SDS011;2585;48.696;10.066;2023-07-02T06:31:59;11.33;;;6.37;;
5133;SDS011;2585;48.696;10.066;2023-07-02T06:34:26;12.87;;;6.93;;
5133;SDS011;2585;48.696;10.066;2023-07-02T06:36:52;13.97;;;6.00;;
5133;SDS011;2585;48.696;10.066;2023-07-02T06:39:19;12.33;;;6.00;;
5133;SDS011;2585;48.696;10.066;2023-07-02T06:41:47;12.80;;;6.73;;
5133;SDS011;2585;48.696;10.066;2023-07-02T06:44:13;11.87;;;6.60;;
5133;SDS011;2585;48.696;10.066;2023-07-02T06:46:40;9.07;;;5.20;;
5133;SDS011;2585;48.696;10.066;2023-07-02T06:49:07;9.83;;;6.90;;
5133;SDS011;2585;48.696;10.066;2023-07-02T06:51:34;10.97;;;6.40;;
5133;SDS011;2585;48.696;10.066;2023-07-02T06:54:01;14.37;;;6.80;;
5133;SDS011;2585;48.696;10.066;2023-07-02T06:56:28;12.13;;;6.23;;
5133;SDS011;2585;48.696;10.066;2023-07-02T06:58:54;12.30;;;6.73;;
5133;SDS011;2585;48.696;10.066;2023-07-02T07:01:21;10.27;;;6.60;;
5133;SDS011;2585;48.696;10.066;2023-07-02T07:03:48;14.73;;;7.00;;
5133;SDS011;2585;48.696;10.066;2023-07-02T07:06:15;16.00;;;7.07;;
5133;SDS011;2585;48.696;10.066;2023-07-02T07:08:42;12.70;;;7.13;;
5133;SDS011;2585;48.696;10.066;2023-07-02T07:11:09;11.13;;;6.63;;
5133;SDS011;2585;48.696;10.066;2023-07-02T07:13:36;15.00;;;7.10;;
5133;SDS011;2585;48.696;10.066;2023-07-02T07:16:02;17.17;;;8.67;;
5133;SDS011;2585;48.696;10.066;2023-07-02T07:18:30;16.60;;;8.30;;
5133;SDS011;2585;48.696;10.066;2023-07-02T07:20:58;28.20;;;9.50;;
5133;SDS011;2585;48.696;10.066;2023-07-02T07:23:25;19.10;;;8.40;;
5133;SDS011;2585;48.696;10.066;2023-07-02T07:25:52;17.73;;;9.33;;
5133;SDS011;2585;48.696;10.066;2023-07-02T07:28:19;19.53;;;10.07;;
5133;SDS011;2585;48.696;10.066;2023-07-02T07:30:46;18.00;;;9.60;;
5133;SDS011;2585;48.696;10.066;2023-07-02T07:33:13;22.70;;;9.43;;
5133;SDS011;2585;48.696;10.066;2023-07-02T07:35:40;18.87;;;9.60;;
5133;SDS011;2585;48.696;10.066;2023-07-02T07:38:07;17.50;;;9.07;;
5133;SDS011;2585;48.696;10.066;2023-07-02T07:40:33;17.80;;;10.10;;
5133;SDS011;2585;48.696;10.066;2023-07-02T07:43:00;16.70;;;8.60;;
5133;SDS011;2585;48.696;10.066;2023-07-02T07:45:27;17.37;;;8.40;;
5133;SDS011;2585;48.696;10.066;2023-07-02T07:47:54;11.90;;;7.93;;
5133;SDS011;2585;48.696;10.066;2023-07-02T07:50:21;14.37;;;8.50;;
5133;SDS011;2585;48.696;10.066;2023-07-02T07:52:48;15.53;;;8.37;;
5133;SDS011;2585;48.696;10.066;2023-07-02T07:55:15;17.00;;;8.60;;
5133;SDS011;2585;48.696;10.066;2023-07-02T07:57:41;17.10;;;8.33;;
5133;SDS011;2585;48.696;10.066;2023-07-02T08:00:09;15.23;;;7.57;;
5133;SDS011;2585;48.696;10.066;2023-07-02T08:02:37;14.17;;;8.30;;
5133;SDS011;2585;48.696;10.066;2023-07-02T08:05:05;13.47;;;7.77;;
5133;SDS011;2585;48.696;10.066;2023-07-02T08:07:32;16.23;;;8.13;;
5133;SDS011;2585;48.696;10.066;2023-07-02T08:09:59;26.40;;;9.53;;
5133;SDS011;2585;48.696;10.066;2023-07-02T08:12:26;18.70;;;9.53;;
5133;SDS011;2585;48.696;10.066;2023-07-02T08:14:55;28.33;;;8.97;;
5133;SDS011;2585;48.696;10.066;2023-07-02T08:17:22;13.97;;;8.87;;
5133;SDS011;2585;48.696;10.066;2023-07-02T08:19:49;16.53;;;8.70;;
5133;SDS011;2585;48.696;10.066;2023-07-02T08:22:16;16.47;;;8.60;;
5133;SDS011;2585;48.696;10.066;2023-07-02T08:24:43;17.40;;;8.93;;
5133;SDS011;2585;48.696;10.066;2023-07-02T08:27:10;16.03;;;8.80;;
5133;SDS011;2585;48.696;10.066;2023-07-02T08:29:40;14.23;;;8.90;;
5133;SDS011;2585;48.696;10.066;2023-07-02T08:32:07;17.20;;;9.50;;
5133;SDS011;2585;48.696;10.066;2023-07-02T08:34:34;15.00;;;8.83;;
5133;SDS011;2585;48.696;10.066;2023-07-02T08:37:00;15.03;;;8.63;;
5133;SDS011;2585;48.696;10.066;2023-07-02T08:39:28;19.57;;;9.60;;
5133;SDS011;2585;48.696;10.066;2023-07-02T08:41:54;15.97;;;9.27;;
5133;SDS011;2585;48.696;10.066;2023-07-02T08:44:21;19.20;;;8.83;;
5133;SDS011;2585;48.696;10.066;2023-07-02T08:46:49;19.43;;;9.90;;
5133;SDS011;2585;48.696;10.066;2023-07-02T08:49:17;16.27;;;8.47;;
5133;SDS011;2585;48.696;10.066;2023-07-02T08:51:45;16.33;;;10.73;;
5133;SDS011;2585;48.696;10.066;2023-07-02T08:54:12;19.63;;;10.30;;
5133;SDS011;2585;48.696;10.066;2023-07-02T08:56:40;18.37;;;9.70;;
5133;SDS011;2585;48.696;10.066;2023-07-02T08:59:08;19.50;;;10.20;;
5133;SDS011;2585;48.696;10.066;2023-07-02T09:01:45;14.90;;;9.27;;
5133;SDS011;2585;48.696;10.066;2023-07-02T09:04:31;18.77;;;9.37;;
5133;SDS011;2585;48.696;10.066;2023-07-02T09:07:08;18.10;;;10.20;;
5133;SDS011;2585;48.696;10.066;2023-07-02T09:09:46;18.40;;;10.90;;
5133;SDS011;2585;48.696;10.066;2023-07-02T09:12:27;16.47;;;10.40;;
5133;SDS011;2585;48.696;10.066;2023-07-02T09:14:56;22.83;;;10.23;;
5133;SDS011;2585;48.696;10.066;2023-07-02T09:17:30;18.83;;;10.23;;
5133;SDS011;2585;48.696;10.066;2023-07-02T09:19:59;18.47;;;10.77;;
5133;SDS011;2585;48.696;10.066;2023-07-02T09:22:27;21.57;;;10.87;;
5133;SDS011;2585;48.696;10.066;2023-07-02T09:24:55;21.47;;;10.63;;
5133;SDS011;2585;48.696;10.066;2023-07-02T09:27:36;17.67;;;10.30;;
5133;SDS011;2585;48.696;10.066;2023-07-02T09:30:05;20.07;;;9.63;;
5133;SDS011;2585;48.696;10.066;2023-07-02T09:32:39;17.40;;;10.40;;
5133;SDS011;2585;48.696;10.066;2023-07-02T09:35:07;18.53;;;10.40;;
5133;SDS011;2585;48.696;10.066;2023-07-02T09:37:34;19.03;;;9.70;;
5133;SDS011;2585;48.696;10.066;2023-07-02T09:40:01;20.23;;;10.43;;
5133;SDS011;2585;48.696;10.066;2023-07-02T09:42:33;17.00;;;10.37;;
5133;SDS011;2585;48.696;10.066;2023-07-02T09:45:02;16.30;;;10.00;;
5133;SDS011;2585;48.696;10.066;2023-07-02T09:47:29;20.47;;;9.70;;
5133;SDS011;2585;48.696;10.066;2023-07-02T09:50:02;14.60;;;9.57;;
5133;SDS011;2585;48.696;10.066;2023-07-02T09:52:32;17.30;;;10.00;;
5133;SDS011;2585;48.696;10.066;2023-07-02T09:55:00;22.50;;;11.00;;
5133;SDS011;2585;48.696;10.066;2023-07-02T09:57:27;18.90;;;10.20;;
5133;SDS011;2585;48.696;10.066;2023-07-02T10:00:00;19.53;;;9.83;;
5133;SDS011;2585;48.696;10.066;2023-07-02T10:02:28;22.47;;;11.13;;
5133;SDS011;2585;48.696;10.066;2023-07-02T10:04:55;16.40;;;10.47;;
5133;SDS011;2585;48.696;10.066;2023-07-02T10:07:30;20.97;;;10.00;;
5133;SDS011;2585;48.696;10.066;2023-07-02T10:10:00;19.00;;;9.70;;
5133;SDS011;2585;48.696;10.066;2023-07-02T10:12:28;24.50;;;10.53;;
5133;SDS011;2585;48.696;10.066;2023-07-02T10:14:56;19.33;;;10.43;;
5133;SDS011;2585;48.696;10.066;2023-07-02T10:20:02;17.93;;;10.90;;
5133;SDS011;2585;48.696;10.066;2023-07-02T10:22:44;23.57;;;11.77;;
5133;SDS011;2585;48.696;10.066;2023-07-02T10:27:53;17.20;;;10.93;;
5133;SDS011;2585;48.696;10.066;2023-07-02T10:30:34;17.13;;;11.67;;
5133;SDS011;2585;48.696;10.066;2023-07-02T10:35:38;16.03;;;11.03;;
5133;SDS011;2585;48.696;10.066;2023-07-02T10:38:14;21.37;;;11.80;;
5133;SDS011;2585;48.696;10.066;2023-07-02T10:41:00;20.57;;;11.80;;
5133;SDS011;2585;48.696;10.066;2023-07-02T10:43:27;19.60;;;10.77;;
5133;SDS011;2585;48.696;10.066;2023-07-02T10:45:56;22.20;;;10.73;;
5133;SDS011;2585;48.696;10.066;2023-07-02T10:48:26;19.27;;;11.50;;
5133;SDS011;2585;48.696;10.066;2023-07-02T10:50:53;18.57;;;10.37;;
5133;SDS011;2585;48.696;10.066;2023-07-02T10:53:20;23.80;;;11.80;;
5133;SDS011;2585;48.696;10.066;2023-07-02T10:55:54;22.73;;;11.60;;
5133;SDS011;2585;48.696;10.066;2023-07-02T10:58:23;20.80;;;11.87;;
5133;SDS011;2585;48.696;10.066;2023-07-02T11:00:50;17.73;;;10.77;;
5133;SDS011;2585;48.696;10.066;2023-07-02T11:03:19;17.27;;;10.77;;
5133;SDS011;2585;48.696;10.066;2023-07-02T11:05:50;21.77;;;11.23;;
5133;SDS011;2585;48.696;10.066;2023-07-02T11:08:19;18.30;;;11.10;;
5133;SDS011;2585;48.696;10.066;2023-07-02T11:10:47;16.77;;;11.80;;
5133;SDS011;2585;48.696;10.066;2023-07-02T11:13:15;20.80;;;11.23;;
5133;SDS011;2585;48.696;10.066;2023-07-02T11:15:43;19.20;;;10.77;;
5133;SDS011;2585;48.696;10.066;2023-07-02T11:18:13;26.30;;;12.57;;
5133;SDS011;2585;48.696;10.066;2023-07-02T11:20:43;18.30;;;10.73;;
5133;SDS011;2585;48.696;10.066;2023-07-02T11:23:20;17.30;;;11.10;;
5133;SDS011;2585;48.696;10.066;2023-07-02T11:25:58;21.37;;;12.37;;
5133;SDS011;2585;48.696;10.066;2023-07-02T11:28:27;18.50;;;11.43;;
5133;SDS011;2585;48.696;10.066;2023-07-02T11:30:55;19.57;;;12.03;;
5133;SDS011;2585;48.696;10.066;2023-07-02T11:33:35;26.20;;;14.60;;
5133;SDS011;2585;48.696;10.066;2023-07-02T11:36:04;20.23;;;12.70;;
5133;SDS011;2585;48.696;10.066;2023-07-02T11:38:33;19.40;;;13.03;;
5133;SDS011;2585;48.696;10.066;2023-07-02T11:41:02;20.30;;;12.97;;
5133;SDS011;2585;48.696;10.066;2023-07-02T11:43:29;22.90;;;13.60;;
5133;SDS011;2585;48.696;10.066;2023-07-02T11:45:56;23.70;;;15.30;;
5133;SDS011;2585;48.696;10.066;2023-07-02T11:48:23;27.43;;;16.53;;
5133;SDS011;2585;48.696;10.066;2023-07-02T11:50:50;23.93;;;15.57;;
5133;SDS011;2585;48.696;10.066;2023-07-02T11:53:17;23.90;;;16.27;;
5133;SDS011;2585;48.696;10.066;2023-07-02T11:55:44;27.00;;;18.70;;
5133;SDS011;2585;48.696;10.066;2023-07-02T11:58:10;28.30;;;18.23;;
5133;SDS011;2585;48.696;10.066;2023-07-02T12:00:37;31.83;;;18.97;;
5133;SDS011;2585;48.696;10.066;2023-07-02T12:03:04;28.17;;;17.80;;
5133;SDS011;2585;48.696;10.066;2023-07-02T12:05:31;28.10;;;17.80;;
5133;SDS011;2585;48.696;10.066;2023-07-02T12:07:58;30.77;;;19.70;;
5133;SDS011;2585;48.696;10.066;2023-07-02T12:10:24;30.57;;;18.80;;
5133;SDS011;2585;48.696;10.066;2023-07-02T12:12:51;26.97;;;17.40;;
5133;SDS011;2585;48.696;10.066;2023-07-02T12:15:18;30.33;;;19.57;;
5133;SDS011;2585;48.696;10.066;2023-07-02T12:17:45;25.87;;;17.80;;
5133;SDS011;2585;48.696;10.066;2023-07-02T12:20:12;27.00;;;16.90;;
5133;SDS011;2585;48.696;10.066;2023-07-02T12:22:38;28.00;;;17.10;;
5133;SDS011;2585;48.696;10.066;2023-07-02T12:25:05;24.67;;;16.07;;
5133;SDS011;2585;48.696;10.066;2023-07-02T12:27:32;22.70;;;15.80;;
5133;SDS011;2585;48.696;10.066;2023-07-02T12:29:59;27.90;;;17.43;;
5133;SDS011;2585;48.696;10.066;2023-07-02T12:32:26;24.13;;;16.23;;
5133;SDS011;2585;48.696;10.066;2023-07-02T12:34:53;28.20;;;16.20;;
5133;SDS011;2585;48.696;10.066;2023-07-02T12:37:20;25.20;;;16.63;;
5133;SDS011;2585;48.696;10.066;2023-07-02T12:39:47;25.90;;;15.77;;
5133;SDS011;2585;48.696;10.066;2023-07-02T12:42:14;25.93;;;16.73;;
5133;SDS011;2585;48.696;10.066;2023-07-02T12:44:41;25.60;;;15.33;;
5133;SDS011;2585;48.696;10.066;2023-07-02T12:47:07;29.63;;;17.00;;
5133;SDS011;2585;48.696;10.066;2023-07-02T12:49:35;25.57;;;15.70;;
5133;SDS011;2585;48.696;10.066;2023-07-02T12:52:02;26.30;;;16.47;;
5133;SDS011;2585;48.696;10.066;2023-07-02T12:54:29;24.30;;;15.77;;
5133;SDS011;2585;48.696;10.066;2023-07-02T12:56:56;24.10;;;15.80;;
5133;SDS011;2585;48.696;10.066;2023-07-02T12:59:22;24.37;;;14.70;;
5133;SDS011;2585;48.696;10.066;2023-07-02T13:01:49;21.97;;;14.70;;
5133;SDS011;2585;48.696;10.066;2023-07-02T13:04:16;25.70;;;15.20;;
5133;SDS011;2585;48.696;10.066;2023-07-02T13:06:43;22.37;;;14.70;;
5133;SDS011;2585;48.696;10.066;2023-07-02T13:09:11;22.93;;;14.17;;
5133;SDS011;2585;48.696;10.066;2023-07-02T13:11:38;18.70;;;12.90;;
5133;SDS011;2585;48.696;10.066;2023-07-02T13:14:05;24.97;;;15.20;;
5133;SDS011;2585;48.696;10.066;2023-07-02T13:16:32;25.57;;;15.17;;
5133;SDS011;2585;48.696;10.066;2023-07-02T13:18:59;24.10;;;15.00;;
5133;SDS011;2585;48.696;10.066;2023-07-02T13:21:28;23.70;;;15.37;;
5133;SDS011;2585;48.696;10.066;2023-07-02T13:23:55;21.17;;;13.50;;
5133;SDS011;2585;48.696;10.066;2023-07-02T13:26:22;26.00;;;15.83;;
5133;SDS011;2585;48.696;10.066;2023-07-02T13:28:49;18.33;;;12.97;;
5133;SDS011;2585;48.696;10.066;2023-07-02T13:31:16;17.23;;;12.40;;
5133;SDS011;2585;48.696;10.066;2023-07-02T13:33:43;22.83;;;15.10;;
5133;SDS011;2585;48.696;10.066;2023-07-02T13:36:11;20.87;;;14.10;;
5133;SDS011;2585;48.696;10.066;2023-07-02T13:38:37;17.90;;;11.90;;
5133;SDS011;2585;48.696;10.066;2023-07-02T13:41:04;20.37;;;14.30;;
5133;SDS011;2585;48.696;10.066;2023-07-02T13:43:31;20.10;;;14.20;;
5133;SDS011;2585;48.696;10.066;2023-07-02T13:45:58;23.90;;;14.00;;
5133;SDS011;2585;48.696;10.066;2023-07-02T13:48:25;20.57;;;13.67;;
5133;SDS011;2585;48.696;10.066;2023-07-02T13:50:54;19.03;;;12.80;;
5133;SDS011;2585;48.696;10.066;2023-07-02T13:53:21;23.10;;;13.80;;
5133;SDS011;2585;48.696;10.066;2023-07-02T13:55:48;20.00;;;14.10;;
5133;SDS011;2585;48.696;10.066;2023-07-02T13:58:15;19.43;;;12.73;;
5133;SDS011;2585;48.696;10.066;2023-07-02T14:00:54;19.07;;;12.23;;
5133;SDS011;2585;48.696;10.066;2023-07-02T14:03:21;17.73;;;12.00;;
5133;SDS011;2585;48.696;10.066;2023-07-02T14:05:48;22.83;;;13.10;;
5133;SDS011;2585;48.696;10.066;2023-07-02T14:08:17;18.67;;;12.47;;
5133;SDS011;2585;48.696;10.066;2023-07-02T14:10:43;19.37;;;13.37;;
5133;SDS011;2585;48.696;10.066;2023-07-02T14:13:10;20.37;;;13.23;;
5133;SDS011;2585;48.696;10.066;2023-07-02T14:15:37;20.50;;;13.13;;
5133;SDS011;2585;48.696;10.066;2023-07-02T14:18:04;19.30;;;12.90;;
5133;SDS011;2585;48.696;10.066;2023-07-02T14:20:31;19.20;;;12.30;;
5133;SDS011;2585;48.696;10.066;2023-07-02T14:22:58;21.20;;;13.10;;
5133;SDS011;2585;48.696;10.066;2023-07-02T14:25:25;20.53;;;13.00;;
5133;SDS011;2585;48.696;10.066;2023-07-02T14:28:06;19.27;;;13.60;;
5133;SDS011;2585;48.696;10.066;2023-07-02T14:30:33;19.53;;;12.50;;
5133;SDS011;2585;48.696;10.066;2023-07-02T14:33:00;21.80;;;13.80;;
5133;SDS011;2585;48.696;10.066;2023-07-02T14:35:27;18.37;;;13.10;;
5133;SDS011;2585;48.696;10.066;2023-07-02T14:37:56;21.57;;;13.27;;
5133;SDS011;2585;48.696;10.066;2023-07-02T14:40:23;19.67;;;12.63;;
5133;SDS011;2585;48.696;10.066;2023-07-02T14:42:50;19.53;;;13.70;;
5133;SDS011;2585;48.696;10.066;2023-07-02T14:45:17;20.80;;;13.47;;
5133;SDS011;2585;48.696;10.066;2023-07-02T14:47:44;18.50;;;12.50;;
5133;SDS011;2585;48.696;10.066;2023-07-02T14:50:11;20.90;;;12.10;;
5133;SDS011;2585;48.696;10.066;2023-07-02T14:52:38;17.47;;;11.70;;
5133;SDS011;2585;48.696;10.066;2023-07-02T14:55:05;19.03;;;12.53;;
5133;SDS011;2585;48.696;10.066;2023-07-02T14:57:32;25.20;;;13.70;;
5133;SDS011;2585;48.696;10.066;2023-07-02T14:59:58;25.07;;;13.10;;
5133;SDS011;2585;48.696;10.066;2023-07-02T15:02:25;23.20;;;13.43;;